createdAt,value
2022-10-11T00:02:36.324Z,14.69
2022-10-11T00:05:38.177Z,14.45
2022-10-11T00:08:40.084Z,14.67
2022-10-11T00:11:42.015Z,14.29
2022-10-11T00:14:43.782Z,14.83
2022-10-11T00:17:45.708Z,14.88
2022-10-11T00:20:47.584Z,14.93
2022-10-11T00:23:49.659Z,14.84
2022-10-11T00:26:51.452Z,14.72
2022-10-11T00:29:53.283Z,14.34
2022-10-11T00:32:55.132Z,14.41
2022-10-11T00:35:58.890Z,14.54
2022-10-11T00:39:00.870Z,14.00
2022-10-11T00:42:02.825Z,14.40
2022-10-11T00:45:23.248Z,15.23
2022-10-11T00:48:27.690Z,14.89
2022-10-11T00:51:29.400Z,14.52
2022-10-11T00:54:31.698Z,13.80
2022-10-11T00:57:34.454Z,14.14
2022-10-11T01:00:36.318Z,15.10
2022-10-11T01:03:38.188Z,14.83
2022-10-11T01:06:40.074Z,14.95
2022-10-11T01:09:41.915Z,15.01
2022-10-11T01:12:50.812Z,15.24
2022-10-11T01:15:58.641Z,15.04
2022-10-11T01:19:03.445Z,15.68
2022-10-11T01:22:20.516Z,15.78
2022-10-11T01:25:32.062Z,14.30
2022-10-11T01:28:41.581Z,14.40
2022-10-11T01:31:52.074Z,14.76
2022-10-11T01:35:03.931Z,15.33
2022-10-11T01:38:05.767Z,14.61
2022-10-11T01:41:09.089Z,14.22
2022-10-11T01:44:10.922Z,14.56
2022-10-11T01:47:12.857Z,14.50
2022-10-11T01:50:33.159Z,13.58
2022-10-11T01:53:40.598Z,13.57
2022-10-11T01:57:01.323Z,13.69
2022-10-11T02:00:15.591Z,14.55
2022-10-11T02:03:17.356Z,13.61
2022-10-11T02:06:36.455Z,13.23
2022-10-11T02:09:41.895Z,13.83
2022-10-11T02:12:45.012Z,14.92
2022-10-11T02:15:46.974Z,14.85
2022-10-11T02:18:50.475Z,14.20
2022-10-11T02:21:53.450Z,14.51
2022-10-11T02:24:57.007Z,14.61
2022-10-11T02:27:59.549Z,13.97
2022-10-11T02:31:01.479Z,13.76
2022-10-11T02:34:11.991Z,14.57
2022-10-11T02:37:16.776Z,14.68
2022-10-11T02:40:21.234Z,14.48
2022-10-11T02:43:25.351Z,14.75
2022-10-11T02:46:27.161Z,14.01
2022-10-11T02:49:29.457Z,13.80
2022-10-11T02:52:31.731Z,14.39
2022-10-11T02:55:33.576Z,13.81
2022-10-11T02:58:35.357Z,13.13
2022-10-11T03:01:37.249Z,13.87
2022-10-11T03:04:39.076Z,14.18
2022-10-11T03:07:40.897Z,12.81
2022-10-11T03:10:42.963Z,13.67
2022-10-11T03:13:44.761Z,13.98
2022-10-11T03:16:46.588Z,14.17
2022-10-11T03:19:48.441Z,14.67
2022-10-11T03:22:50.367Z,14.27
2022-10-11T03:25:52.230Z,14.13
2022-10-11T03:28:54.172Z,13.49
2022-10-11T03:31:56.104Z,14.20
2022-10-11T03:34:58.044Z,14.27
2022-10-11T03:37:59.855Z,13.83
2022-10-11T03:41:01.676Z,14.38
2022-10-11T03:44:03.738Z,14.56
2022-10-11T03:47:06.058Z,13.49
2022-10-11T03:50:08.254Z,13.39
2022-10-11T03:53:10.154Z,13.34
2022-10-11T03:56:12.301Z,13.91
2022-10-11T03:59:14.206Z,13.58
2022-10-11T04:02:16.121Z,14.49
2022-10-11T04:05:18.176Z,14.45
2022-10-11T04:08:20.022Z,13.45
2022-10-11T04:11:21.829Z,13.87
2022-10-11T04:14:23.619Z,13.69
2022-10-11T04:17:25.470Z,14.15
2022-10-11T04:20:27.311Z,13.99
2022-10-11T04:23:30.422Z,14.24
2022-10-11T04:26:32.255Z,14.29
2022-10-11T04:29:34.186Z,13.71
2022-10-11T04:32:36.028Z,13.81
2022-10-11T04:35:37.899Z,14.02
2022-10-11T04:38:39.724Z,13.78
2022-10-11T04:41:41.579Z,14.39
2022-10-11T04:44:43.394Z,14.97
2022-10-11T04:47:45.305Z,14.11
2022-10-11T04:50:47.157Z,13.94
2022-10-11T04:53:49.337Z,13.93
2022-10-11T04:56:51.154Z,14.28
2022-10-11T04:59:52.989Z,13.96
2022-10-11T05:02:55.221Z,13.85
2022-10-11T05:05:57.169Z,13.57
2022-10-11T05:08:59.021Z,14.87
2022-10-11T05:12:00.901Z,13.64
2022-10-11T05:15:02.859Z,14.33
2022-10-11T05:18:04.778Z,13.96
2022-10-11T05:21:07.835Z,13.81
2022-10-11T05:24:09.695Z,13.89
2022-10-11T05:27:11.568Z,14.00
2022-10-11T05:30:13.492Z,13.75
2022-10-11T05:33:15.306Z,14.43
2022-10-11T05:36:17.596Z,14.96
2022-10-11T05:39:19.426Z,14.93
2022-10-11T05:42:21.280Z,15.98
2022-10-11T05:45:23.129Z,15.79
2022-10-11T05:48:37.479Z,15.95
2022-10-11T05:52:11.425Z,15.81
2022-10-11T05:55:16.663Z,15.37
2022-10-11T06:02:03.667Z,17.19
2022-10-11T06:05:05.824Z,16.86
2022-10-11T06:08:08.722Z,17.32
2022-10-11T06:11:14.675Z,17.23
2022-10-11T06:14:16.553Z,17.81
2022-10-11T06:17:18.445Z,18.52
2022-10-11T06:20:20.468Z,17.71
2022-10-11T06:23:22.600Z,17.53
2022-10-11T06:26:24.502Z,17.84
2022-10-11T06:29:26.454Z,18.50
2022-10-11T06:32:28.418Z,18.59
2022-10-11T06:35:30.368Z,18.60
2022-10-11T06:38:32.241Z,18.40
2022-10-11T06:41:34.188Z,18.87
2022-10-11T06:44:36.175Z,18.92
2022-10-11T06:47:38.008Z,19.63
2022-10-11T06:50:58.546Z,19.35
2022-10-11T06:54:02.162Z,19.49
2022-10-11T06:57:04.000Z,20.22
2022-10-11T07:00:12.480Z,20.64
2022-10-11T07:03:14.708Z,19.60
2022-10-11T07:06:17.791Z,21.35
2022-10-11T07:09:19.635Z,19.61
2022-10-11T07:12:21.727Z,20.09
2022-10-11T07:15:26.882Z,20.07
2022-10-11T07:18:29.135Z,20.27
2022-10-11T07:21:31.964Z,20.21
2022-10-11T07:24:33.794Z,21.04
2022-10-11T07:27:35.627Z,20.96
2022-10-11T07:30:41.230Z,18.83
2022-10-11T07:33:43.363Z,19.19
2022-10-11T07:36:45.270Z,18.70
2022-10-11T07:39:48.848Z,19.52
2022-10-11T07:42:51.527Z,19.05
2022-10-11T07:45:57.000Z,20.44
2022-10-11T07:48:59.121Z,18.61
2022-10-11T07:52:00.969Z,18.64
2022-10-11T07:55:02.886Z,18.33
2022-10-11T07:58:07.314Z,18.91
2022-10-11T08:01:10.231Z,18.60
2022-10-11T08:04:12.176Z,18.98
2022-10-11T08:07:14.078Z,18.11
2022-10-11T08:10:16.118Z,17.18
2022-10-11T08:13:18.195Z,18.28
2022-10-11T08:16:20.719Z,19.15
2022-10-11T08:19:23.879Z,17.32
2022-10-11T08:22:27.820Z,17.22
2022-10-11T08:25:29.911Z,17.85
2022-10-11T08:28:31.967Z,18.73
2022-10-11T08:31:34.263Z,17.65
2022-10-11T08:34:36.236Z,18.87
2022-10-11T08:37:38.223Z,17.78
2022-10-11T08:40:52.522Z,18.82
2022-10-11T08:44:21.016Z,18.40
2022-10-11T08:47:43.308Z,17.86
2022-10-11T08:50:46.968Z,18.38
2022-10-11T08:53:54.282Z,17.76
2022-10-11T08:56:56.308Z,18.32
2022-10-11T09:00:05.139Z,19.21
2022-10-11T09:03:24.990Z,18.84
2022-10-11T09:06:36.001Z,19.13
2022-10-11T09:09:48.221Z,19.79
2022-10-11T09:13:00.171Z,19.61
2022-10-11T09:16:09.494Z,20.14
2022-10-11T09:19:20.579Z,20.81
2022-10-11T09:22:24.745Z,20.09
2022-10-11T09:26:04.541Z,20.61
2022-10-11T09:29:11.843Z,19.97
2022-10-11T09:32:21.116Z,20.89
2022-10-11T09:35:26.685Z,21.22
2022-10-11T09:38:31.887Z,20.36
2022-10-11T09:41:38.922Z,19.99
2022-10-11T09:44:41.828Z,20.80
2022-10-11T09:47:43.865Z,19.81
2022-10-11T09:50:45.882Z,21.46
2022-10-11T09:53:52.010Z,22.96
2022-10-11T09:56:54.441Z,24.79
2022-10-11T10:00:00.118Z,27.20
2022-10-11T10:03:02.961Z,26.20
2022-10-11T10:06:10.028Z,24.50
2022-10-11T10:09:28.683Z,25.95
2022-10-11T10:12:30.583Z,25.96
2022-10-11T10:15:36.238Z,26.75
2022-10-11T10:18:48.531Z,28.81
2022-10-11T10:21:51.900Z,26.56
2022-10-11T10:24:54.140Z,26.91
2022-10-11T10:28:00.562Z,28.00
2022-10-11T10:31:02.378Z,24.82
2022-10-11T10:34:15.290Z,24.72
2022-10-11T10:37:17.138Z,25.82
2022-10-11T10:40:21.100Z,23.82
2022-10-11T10:43:24.308Z,23.28
2022-10-11T10:46:35.673Z,23.83
2022-10-11T10:49:59.834Z,24.73
2022-10-11T10:53:20.554Z,24.18
2022-10-11T10:56:31.851Z,23.39
2022-10-11T10:59:43.214Z,23.98
2022-10-11T11:03:05.293Z,24.10
2022-10-11T11:06:12.568Z,23.54
2022-10-11T11:09:17.359Z,21.26
2022-10-11T11:12:34.822Z,21.46
2022-10-11T11:15:41.202Z,22.29
2022-10-11T11:18:46.354Z,23.24
2022-10-11T11:21:50.207Z,24.16
2022-10-11T11:24:57.045Z,23.86
2022-10-11T11:28:11.753Z,22.17
2022-10-11T11:31:13.740Z,23.15
2022-10-11T11:34:15.554Z,22.50
2022-10-11T11:37:36.819Z,24.22
2022-10-11T11:40:43.097Z,22.89
2022-10-11T11:43:52.045Z,23.00
2022-10-11T11:46:54.848Z,21.72
2022-10-11T11:49:59.660Z,23.72
2022-10-11T11:53:05.184Z,23.23
2022-10-11T11:56:10.258Z,23.77
2022-10-11T11:59:21.452Z,24.01
2022-10-11T12:02:39.744Z,23.00
2022-10-11T12:05:43.748Z,23.27
2022-10-11T12:08:57.055Z,22.33
2022-10-11T12:12:00.318Z,22.87
2022-10-11T12:15:05.046Z,22.88
2022-10-11T12:18:13.446Z,22.58
2022-10-11T12:21:17.713Z,22.63
2022-10-11T12:24:19.508Z,22.47
2022-10-11T12:28:00.069Z,23.14
2022-10-11T12:31:05.985Z,22.90
2022-10-11T12:34:08.229Z,22.38
2022-10-11T12:37:19.824Z,22.21
2022-10-11T12:40:36.401Z,21.92
2022-10-11T12:43:50.552Z,23.01
2022-10-11T12:46:55.634Z,21.66
2022-10-11T12:50:02.973Z,21.24
2022-10-11T12:53:25.242Z,21.47
2022-10-11T12:56:45.625Z,22.08
2022-10-11T12:59:47.964Z,21.95
2022-10-11T13:02:50.143Z,24.50
2022-10-11T13:05:56.159Z,25.41
2022-10-11T13:09:02.993Z,24.99
2022-10-11T13:12:08.243Z,23.74
2022-10-11T13:15:15.909Z,24.67
2022-10-11T13:18:19.259Z,25.69
2022-10-11T13:21:24.317Z,28.29
2022-10-11T13:24:27.794Z,27.82
2022-10-11T13:27:29.748Z,30.05
2022-10-11T13:30:32.981Z,31.11
2022-10-11T13:33:36.286Z,30.43
2022-10-11T13:36:38.165Z,31.23
2022-10-11T13:39:41.590Z,32.07
2022-10-11T13:42:43.865Z,31.39
2022-10-11T13:45:45.730Z,30.65
2022-10-11T13:48:56.618Z,32.32
2022-10-11T13:51:59.611Z,30.29
2022-10-11T13:55:01.586Z,27.98
2022-10-11T13:58:09.119Z,26.22
2022-10-11T14:01:24.900Z,25.96
2022-10-11T14:04:29.701Z,24.90
2022-10-11T14:07:33.867Z,23.77
2022-10-11T14:10:35.782Z,24.59
2022-10-11T14:13:41.741Z,23.37
2022-10-11T14:16:48.079Z,22.72
2022-10-11T14:20:08.730Z,22.12
2022-10-11T14:23:13.405Z,21.60
2022-10-11T14:26:18.786Z,21.99
2022-10-11T14:29:22.990Z,22.36
2022-10-11T14:32:29.350Z,23.01
2022-10-11T14:35:31.950Z,22.23
2022-10-11T14:38:33.833Z,22.86
2022-10-11T14:41:35.679Z,22.21
2022-10-11T14:44:37.654Z,22.29
2022-10-11T14:47:42.968Z,23.07
2022-10-11T14:50:49.731Z,22.34
2022-10-11T14:53:52.229Z,22.43
2022-10-11T14:56:55.290Z,21.55
2022-10-11T14:59:57.307Z,21.41
2022-10-11T15:02:59.120Z,21.40
2022-10-11T15:06:01.713Z,21.49
2022-10-11T15:09:04.861Z,21.80
2022-10-11T15:12:06.859Z,22.01
2022-10-11T15:15:11.453Z,22.05
2022-10-11T15:18:17.605Z,22.83
2022-10-11T15:21:23.010Z,22.19
2022-10-11T15:24:24.899Z,22.37
2022-10-11T15:27:28.946Z,22.62
2022-10-11T15:30:31.637Z,21.55
2022-10-11T15:33:33.490Z,21.86
2022-10-11T15:36:35.293Z,21.64
2022-10-11T15:39:37.217Z,21.74
2022-10-11T15:42:39.428Z,22.16
2022-10-11T15:45:41.528Z,21.98
2022-10-11T15:48:43.862Z,22.04
2022-10-11T15:51:45.963Z,22.12
2022-10-11T15:54:47.801Z,21.22
2022-10-11T15:57:49.570Z,21.87
2022-10-11T16:00:56.232Z,22.22
2022-10-11T16:03:58.144Z,22.34
2022-10-11T16:06:59.986Z,22.16
2022-10-11T16:10:01.934Z,22.00
2022-10-11T16:13:03.967Z,22.46
2022-10-11T16:16:06.457Z,22.33
2022-10-11T16:19:08.582Z,22.30
2022-10-11T16:22:11.080Z,22.13
2022-10-11T16:25:12.885Z,22.28
2022-10-11T16:28:14.835Z,21.78
2022-10-11T16:31:18.368Z,21.42
2022-10-11T16:34:20.283Z,21.53
2022-10-11T16:37:22.125Z,21.39
2022-10-11T16:40:26.337Z,21.62
2022-10-11T16:43:28.172Z,21.73
2022-10-11T16:46:29.992Z,21.35
2022-10-11T16:49:32.097Z,21.53
2022-10-11T16:52:34.138Z,21.18
2022-10-11T16:55:36.022Z,21.16
2022-10-11T16:58:37.944Z,21.69
2022-10-11T17:01:40.016Z,21.40
2022-10-11T17:04:42.039Z,21.42
2022-10-11T17:07:43.848Z,21.37
2022-10-11T17:10:47.726Z,21.06
2022-10-11T17:13:50.465Z,20.72
2022-10-11T17:16:52.294Z,20.84
2022-10-11T17:19:54.328Z,21.16
2022-10-11T17:22:56.174Z,20.46
2022-10-11T17:25:57.964Z,20.54
2022-10-11T17:29:00.539Z,20.57
2022-10-11T17:32:02.595Z,20.46
2022-10-11T17:35:05.061Z,19.90
2022-10-11T17:38:06.891Z,20.67
2022-10-11T17:41:09.165Z,21.04
2022-10-11T17:44:11.671Z,20.49
2022-10-11T17:47:14.384Z,21.05
2022-10-11T17:50:16.233Z,21.14
2022-10-11T17:53:18.143Z,20.93
2022-10-11T17:56:26.704Z,19.91
2022-10-11T17:59:31.984Z,20.45
2022-10-11T18:02:33.840Z,20.61
2022-10-11T18:05:41.933Z,20.28
2022-10-11T18:08:43.795Z,20.29
2022-10-11T18:11:46.169Z,20.39
2022-10-11T18:14:48.007Z,20.49
2022-10-11T18:17:49.803Z,20.16
2022-10-11T18:20:51.649Z,20.42
2022-10-11T18:23:53.465Z,20.70
2022-10-11T18:26:55.277Z,20.68
2022-10-11T18:29:57.550Z,19.91
2022-10-11T18:32:59.366Z,19.17
2022-10-11T18:36:01.397Z,19.33
2022-10-11T18:39:04.390Z,19.60
2022-10-11T18:42:06.320Z,19.89
2022-10-11T18:45:08.545Z,19.98
2022-10-11T18:48:10.597Z,20.00
2022-10-11T18:51:14.884Z,19.82
2022-10-11T18:54:20.144Z,19.83
2022-10-11T18:57:24.298Z,19.40
2022-10-11T19:00:41.760Z,19.34
2022-10-11T19:03:44.317Z,19.90
2022-10-11T19:06:47.837Z,19.34
2022-10-11T19:09:49.759Z,19.08
2022-10-11T19:12:51.609Z,19.28
2022-10-11T19:15:53.445Z,19.65
2022-10-11T19:18:55.429Z,19.59
2022-10-11T19:21:57.267Z,19.63
2022-10-11T19:24:59.198Z,19.81
2022-10-11T19:28:01.049Z,19.49
2022-10-11T19:31:06.929Z,19.17
2022-10-11T19:34:09.118Z,18.74
2022-10-11T19:37:13.320Z,18.83
2022-10-11T19:40:15.218Z,18.67
2022-10-11T19:43:17.078Z,18.90
2022-10-11T19:46:37.902Z,18.21
2022-10-11T19:49:42.390Z,18.31
2022-10-11T19:52:45.088Z,18.53
2022-10-11T19:55:46.976Z,19.08
2022-10-11T19:58:48.827Z,19.18
2022-10-11T20:01:53.087Z,19.33
2022-10-11T20:04:55.322Z,19.29
2022-10-11T20:07:57.215Z,17.98
2022-10-11T20:10:59.598Z,18.33
2022-10-11T20:14:01.437Z,19.04
2022-10-11T20:17:03.480Z,19.44
2022-10-11T20:20:05.506Z,19.22
2022-10-11T20:23:07.338Z,19.14
2022-10-11T20:26:13.023Z,18.89
2022-10-11T20:29:14.849Z,18.80
2022-10-11T20:32:16.675Z,18.80
2022-10-11T20:35:18.482Z,18.65
2022-10-11T20:38:20.282Z,19.07
2022-10-11T20:41:23.323Z,18.79
2022-10-11T20:44:25.168Z,18.54
2022-10-11T20:47:27.126Z,17.99
2022-10-11T20:50:28.938Z,17.91
2022-10-11T20:53:30.737Z,17.80
2022-10-11T20:56:33.686Z,17.60
2022-10-11T20:59:35.757Z,17.81
2022-10-11T21:02:38.544Z,18.58
2022-10-11T21:05:40.398Z,18.35
2022-10-11T21:08:42.206Z,18.79
2022-10-11T21:11:44.026Z,18.54
2022-10-11T21:14:45.833Z,17.47
2022-10-11T21:17:48.514Z,16.96
2022-10-11T21:20:50.366Z,17.05
2022-10-11T21:24:01.580Z,18.21
2022-10-11T21:27:03.393Z,17.75
2022-10-11T21:30:05.446Z,17.70
2022-10-11T21:33:07.252Z,17.54
2022-10-11T21:36:29.404Z,17.35
2022-10-11T21:39:31.610Z,17.74
2022-10-11T21:42:33.426Z,17.71
2022-10-11T21:45:36.631Z,17.94
2022-10-11T21:48:38.809Z,17.17
2022-10-11T21:51:40.619Z,17.24
2022-10-11T21:54:42.395Z,17.34
2022-10-11T21:57:44.204Z,16.48
2022-10-11T22:00:46.798Z,16.19
2022-10-11T22:03:48.754Z,16.54
2022-10-11T22:06:50.573Z,17.40
2022-10-11T22:09:52.354Z,17.70
2022-10-11T22:12:54.161Z,17.67
2022-10-11T22:15:58.701Z,17.51
2022-10-11T22:19:00.520Z,16.56
2022-10-11T22:22:02.437Z,17.04
2022-10-11T22:25:04.405Z,17.16
2022-10-11T22:28:08.390Z,17.14
2022-10-11T22:31:10.391Z,16.33
2022-10-11T22:34:12.170Z,16.64
2022-10-11T22:37:13.969Z,16.32
2022-10-11T22:40:16.117Z,16.68
2022-10-11T22:43:17.952Z,16.38
2022-10-11T22:46:19.763Z,16.87
2022-10-11T22:49:21.562Z,16.45
2022-10-11T22:52:23.344Z,16.58
2022-10-11T22:55:26.207Z,16.69
2022-10-11T22:58:28.084Z,16.52
2022-10-11T23:01:30.018Z,15.48
2022-10-11T23:04:31.793Z,16.64
2022-10-11T23:07:33.778Z,15.78
2022-10-11T23:10:39.622Z,16.16
2022-10-11T23:13:41.445Z,15.64
2022-10-11T23:16:43.251Z,16.05
2022-10-11T23:19:45.072Z,16.37
2022-10-11T23:22:46.907Z,16.42
2022-10-11T23:25:48.720Z,16.26
2022-10-11T23:28:53.078Z,16.11
2022-10-11T23:31:55.052Z,16.63
2022-10-11T23:34:56.870Z,16.66
2022-10-11T23:37:58.704Z,16.48
2022-10-11T23:41:00.530Z,16.54
2022-10-11T23:44:02.338Z,16.86
2022-10-11T23:47:04.172Z,16.42
2022-10-11T23:50:06.218Z,16.25
2022-10-11T23:53:08.082Z,16.62
2022-10-11T23:56:10.054Z,16.81
2022-10-11T23:59:11.856Z,16.17
